PWSweather.com
Personal Weather Stations
Station Observations
CW4114
Near Downtown, Rogers City, MI 49779

Near DowntownRogers City, MI 49779

Lat: 45.417443, Lon: -83.810642

Elevation: 605

Station Type: Davis Vantage Pro2 w/Solar

Latest ConditionsUpdated 10:29:35 AM EDT Saturday, Aug 29, 2015
Currently Today's Max Today's Min Today's Average
Temperature 62.2°F16.8°C 64.8°F18.2°C 61.9°F16.6°C 62.7°F17.1°C
Dew Point 60.8°F16.0°C 61.2°F16.2°C 59.4°F15.2°C 60.5°F15.8°C
Winds 4.0 mph WSW6.4 kmh WSW 6.0 mph W9.7 kmh W - 3.7 mph 6.0 kmh
Wind Gusts 8.1 mph13.0 kmh 14.1 mph22.7 kmh - -
Humidity 95% 96% 83% 93%
Pressure 30.08 in1018.6 mb 30.08 in1018.6 mb 30.04 in1017.3 mb -
Precipitation - 0.09 in2.3 mm - -
Hour Temp Dew Point Humidity Winds Wind Gusts Pressure Precip Precip Rate Daily Precip Total
10:29 AM 62.2°F16.8°C 60.8°F16.0°C 95% 4.0 mph WSW6.4 kmh WSW 8.1 mph13.0 kmh 30.08 in1018.6 mb 0.00 in0.0 mm 0.00 in0.0 mm 0.09 in2.3 mm
10:24 AM 62.1°F16.7°C 60.6°F15.9°C 95% 4.0 mph WSW6.4 kmh WSW 6.9 mph11.1 kmh 30.07 in1018.3 mb 0.00 in0.0 mm 0.00 in0.0 mm 0.08 in2.0 mm
10:19 AM 62.1°F16.7°C 60.6°F15.9°C 95% 4.9 mph WSW7.9 kmh WSW 8.1 mph13.0 kmh 30.07 in1018.3 mb 0.00 in0.0 mm 0.00 in0.0 mm 0.08 in2.0 mm
10:14 AM 62.1°F16.7°C 60.6°F15.9°C 95% 4.9 mph WSW7.9 kmh WSW 8.1 mph13.0 kmh 30.07 in1018.3 mb 0.00 in0.0 mm 0.00 in0.0 mm 0.08 in2.0 mm
10:09 AM 62.1°F16.7°C 60.6°F15.9°C 95% 4.0 mph WSW6.4 kmh WSW 8.1 mph13.0 kmh 30.07 in1018.3 mb 0.00 in0.0 mm 0.00 in0.0 mm 0.08 in2.0 mm
10:04 AM 61.9°F16.6°C 60.4°F15.8°C 95% 4.9 mph WSW7.9 kmh WSW 8.9 mph14.3 kmh 30.07 in1018.3 mb 0.00 in0.0 mm 0.00 in0.0 mm 0.08 in2.0 mm
09:59 AM 62.1°F16.7°C 60.6°F15.9°C 95% 4.9 mph WNW7.9 kmh WNW 8.9 mph14.3 kmh 30.07 in1018.3 mb 0.00 in0.0 mm 0.00 in0.0 mm 0.08 in2.0 mm
09:54 AM 61.9°F16.6°C 60.4°F15.8°C 95% 4.9 mph W7.9 kmh W 8.9 mph14.3 kmh 30.08 in1018.6 mb 0.00 in0.0 mm 0.00 in0.0 mm 0.08 in2.0 mm
09:49 AM 61.9°F16.6°C 60.4°F15.8°C 95% 6.0 mph WSW9.7 kmh WSW 13.0 mph20.9 kmh 30.08 in1018.6 mb 0.01 in0.3 mm 0.00 in0.0 mm 0.08 in2.0 mm
09:44 AM 61.9°F16.6°C 60.4°F15.8°C 95% 6.0 mph W9.7 kmh W 14.1 mph22.7 kmh 30.08 in1018.6 mb 0.01 in0.3 mm 0.00 in0.0 mm 0.08 in2.0 mm
09:39 AM 61.9°F16.6°C 60.4°F15.8°C 95% 6.0 mph WSW9.7 kmh WSW 12.1 mph19.5 kmh 30.08 in1018.6 mb 0.01 in0.3 mm 0.00 in0.0 mm 0.08 in2.0 mm
09:34 AM 61.9°F16.6°C 60.4°F15.8°C 95% 6.0 mph W9.7 kmh W 10.1 mph16.3 kmh 30.08 in1018.6 mb 0.01 in0.3 mm 0.00 in0.0 mm 0.08 in2.0 mm
09:29 AM 61.9°F16.6°C 60.8°F16.0°C 96% 6.0 mph W9.7 kmh W 14.1 mph22.7 kmh 30.08 in1018.6 mb 0.01 in0.3 mm 0.00 in0.0 mm 0.08 in2.0 mm
09:24 AM 61.9°F16.6°C 60.8°F16.0°C 96% 6.0 mph WNW9.7 kmh WNW 8.9 mph14.3 kmh 30.08 in1018.6 mb 0.01 in0.3 mm 0.00 in0.0 mm 0.08 in2.0 mm
09:19 AM 61.9°F16.6°C 60.8°F16.0°C 96% 4.9 mph W7.9 kmh W 11.0 mph17.7 kmh 30.08 in1018.6 mb 0.01 in0.3 mm 0.00 in0.0 mm 0.08 in2.0 mm
09:14 AM 61.9°F16.6°C 60.8°F16.0°C 96% 4.9 mph W7.9 kmh W 8.9 mph14.3 kmh 30.07 in1018.3 mb 0.01 in0.3 mm 0.00 in0.0 mm 0.08 in2.0 mm
09:09 AM 61.9°F16.6°C 60.8°F16.0°C 96% 4.9 mph W7.9 kmh W 10.1 mph16.3 kmh 30.08 in1018.6 mb 0.02 in0.5 mm 0.00 in0.0 mm 0.08 in2.0 mm
09:04 AM 62.1°F16.7°C 61.0°F16.1°C 96% 4.9 mph W7.9 kmh W 8.1 mph13.0 kmh 30.08 in1018.6 mb 0.02 in0.5 mm 0.00 in0.0 mm 0.08 in2.0 mm
08:59 AM 62.1°F16.7°C 61.0°F16.1°C 96% 4.9 mph WSW7.9 kmh WSW 10.1 mph16.3 kmh 30.08 in1018.6 mb 0.02 in0.5 mm 0.00 in0.0 mm 0.08 in2.0 mm
08:54 AM 62.1°F16.7°C 61.0°F16.1°C 96% 4.9 mph W7.9 kmh W 11.0 mph17.7 kmh 30.08 in1018.6 mb 0.02 in0.5 mm 0.12 in3.0 mm 0.08 in2.0 mm
08:49 AM 62.1°F16.7°C 61.0°F16.1°C 96% 4.9 mph W7.9 kmh W 8.9 mph14.3 kmh 30.08 in1018.6 mb 0.01 in0.3 mm 0.00 in0.0 mm 0.07 in1.8 mm
08:44 AM 62.1°F16.7°C 61.0°F16.1°C 96% 4.0 mph WSW6.4 kmh WSW 8.9 mph14.3 kmh 30.08 in1018.6 mb 0.01 in0.3 mm 0.00 in0.0 mm 0.07 in1.8 mm
08:39 AM 62.1°F16.7°C 61.0°F16.1°C 96% 4.0 mph WSW6.4 kmh WSW 6.9 mph11.1 kmh 30.08 in1018.6 mb 0.01 in0.3 mm 0.00 in0.0 mm 0.07 in1.8 mm
08:34 AM 62.1°F16.7°C 60.6°F15.9°C 95% 4.0 mph W6.4 kmh W 8.9 mph14.3 kmh 30.08 in1018.6 mb 0.01 in0.3 mm 0.00 in0.0 mm 0.07 in1.8 mm
08:29 AM 62.1°F16.7°C 61.0°F16.1°C 96% 4.0 mph WNW6.4 kmh WNW 6.9 mph11.1 kmh 30.08 in1018.6 mb 0.01 in0.3 mm 0.00 in0.0 mm 0.07 in1.8 mm
08:24 AM 62.1°F16.7°C 60.6°F15.9°C 95% 4.9 mph W7.9 kmh W 8.9 mph14.3 kmh 30.08 in1018.6 mb 0.01 in0.3 mm 0.00 in0.0 mm 0.07 in1.8 mm
08:19 AM 61.9°F16.6°C 60.4°F15.8°C 95% 4.9 mph W7.9 kmh W 8.9 mph14.3 kmh 30.08 in1018.6 mb 0.01 in0.3 mm 0.12 in3.0 mm 0.07 in1.8 mm
08:14 AM 62.1°F16.7°C 60.6°F15.9°C 95% 4.9 mph W7.9 kmh W 8.9 mph14.3 kmh 30.08 in1018.6 mb 0.00 in0.0 mm 0.00 in0.0 mm 0.07 in1.8 mm
08:09 AM 61.9°F16.6°C 60.4°F15.8°C 95% 4.9 mph W7.9 kmh W 8.9 mph14.3 kmh 30.07 in1018.3 mb 0.00 in0.0 mm 0.00 in0.0 mm 0.06 in1.5 mm
08:04 AM 61.9°F16.6°C 60.4°F15.8°C 95% 4.9 mph NW7.9 kmh NW 8.9 mph14.3 kmh 30.08 in1018.6 mb 0.00 in0.0 mm 0.00 in0.0 mm 0.06 in1.5 mm
07:59 AM 61.9°F16.6°C 60.4°F15.8°C 95% 4.0 mph WNW6.4 kmh WNW 8.9 mph14.3 kmh 30.08 in1018.6 mb 0.00 in0.0 mm 0.00 in0.0 mm 0.06 in1.5 mm
07:54 AM 61.9°F16.6°C 60.4°F15.8°C 95% 4.9 mph SW7.9 kmh SW 8.9 mph14.3 kmh 30.08 in1018.6 mb 0.00 in0.0 mm 0.00 in0.0 mm 0.06 in1.5 mm
07:49 AM 61.9°F16.6°C 60.4°F15.8°C 95% 4.9 mph WSW7.9 kmh WSW 10.1 mph16.3 kmh 30.08 in1018.6 mb 0.00 in0.0 mm 0.00 in0.0 mm 0.06 in1.5 mm
07:44 AM 61.9°F16.6°C 60.4°F15.8°C 95% 4.9 mph WNW7.9 kmh WNW 11.0 mph17.7 kmh 30.08 in1018.6 mb 0.00 in0.0 mm 0.00 in0.0 mm 0.06 in1.5 mm
07:39 AM 61.9°F16.6°C 60.4°F15.8°C 95% 4.9 mph WSW7.9 kmh WSW 10.1 mph16.3 kmh 30.07 in1018.3 mb 0.00 in0.0 mm 0.00 in0.0 mm 0.06 in1.5 mm
07:34 AM 61.9°F16.6°C 60.4°F15.8°C 95% 4.9 mph W7.9 kmh W 11.0 mph17.7 kmh 30.08 in1018.6 mb 0.00 in0.0 mm 0.00 in0.0 mm 0.06 in1.5 mm
07:29 AM 61.9°F16.6°C 60.4°F15.8°C 95% 4.9 mph W7.9 kmh W 8.9 mph14.3 kmh 30.08 in1018.6 mb 0.00 in0.0 mm 0.00 in0.0 mm 0.06 in1.5 mm
07:24 AM 61.9°F16.6°C 60.4°F15.8°C 95% 6.0 mph WSW9.7 kmh WSW 8.9 mph14.3 kmh 30.07 in1018.3 mb 0.00 in0.0 mm 0.00 in0.0 mm 0.06 in1.5 mm
07:19 AM 62.1°F16.7°C 60.6°F15.9°C 95% 4.9 mph WSW7.9 kmh WSW 11.0 mph17.7 kmh 30.07 in1018.3 mb 0.00 in0.0 mm 0.00 in0.0 mm 0.06 in1.5 mm
07:14 AM 62.1°F16.7°C 60.6°F15.9°C 95% 4.9 mph WSW7.9 kmh WSW 8.9 mph14.3 kmh 30.08 in1018.6 mb 0.00 in0.0 mm 0.00 in0.0 mm 0.06 in1.5 mm
07:09 AM 62.1°F16.7°C 60.6°F15.9°C 95% 4.0 mph W6.4 kmh W 10.1 mph16.3 kmh 30.07 in1018.3 mb 0.00 in0.0 mm 0.00 in0.0 mm 0.06 in1.5 mm
07:04 AM 62.1°F16.7°C 60.6°F15.9°C 95% 4.0 mph WSW6.4 kmh WSW 10.1 mph16.3 kmh 30.07 in1018.3 mb 0.00 in0.0 mm 0.00 in0.0 mm 0.06 in1.5 mm
06:59 AM 62.1°F16.7°C 60.6°F15.9°C 95% 4.9 mph W7.9 kmh W 10.1 mph16.3 kmh 30.07 in1018.3 mb 0.00 in0.0 mm 0.00 in0.0 mm 0.06 in1.5 mm
06:54 AM 62.1°F16.7°C 60.6°F15.9°C 95% 4.0 mph W6.4 kmh W 8.9 mph14.3 kmh 30.07 in1018.3 mb 0.00 in0.0 mm 0.00 in0.0 mm 0.06 in1.5 mm
06:49 AM 62.2°F16.8°C 60.8°F16.0°C 95% 4.9 mph W7.9 kmh W 12.0 mph19.3 kmh 30.07 in1018.3 mb 0.00 in0.0 mm 0.00 in0.0 mm 0.06 in1.5 mm
06:44 AM 62.2°F16.8°C 60.8°F16.0°C 95% 4.9 mph WSW7.9 kmh WSW 12.0 mph19.3 kmh 30.07 in1018.3 mb 0.00 in0.0 mm 0.00 in0.0 mm 0.06 in1.5 mm
06:39 AM 62.2°F16.8°C 60.8°F16.0°C 95% 6.0 mph W9.7 kmh W 12.1 mph19.5 kmh 30.07 in1018.3 mb 0.00 in0.0 mm 0.00 in0.0 mm 0.06 in1.5 mm
06:34 AM 62.2°F16.8°C 60.8°F16.0°C 95% 6.0 mph SSW9.7 kmh SSW 12.1 mph19.5 kmh 30.07 in1018.3 mb 0.00 in0.0 mm 0.00 in0.0 mm 0.06 in1.5 mm
06:29 AM 62.2°F16.8°C 60.8°F16.0°C 95% 6.0 mph WSW9.7 kmh WSW 10.1 mph16.3 kmh 30.06 in1017.9 mb 0.00 in0.0 mm 0.00 in0.0 mm 0.06 in1.5 mm
06:24 AM 62.1°F16.7°C 60.6°F15.9°C 95% 4.9 mph W7.9 kmh W 11.0 mph17.7 kmh 30.06 in1017.9 mb 0.00 in0.0 mm 0.00 in0.0 mm 0.06 in1.5 mm
06:19 AM 62.2°F16.8°C 61.2°F16.2°C 96% 4.0 mph W6.4 kmh W 10.1 mph16.3 kmh 30.06 in1017.9 mb 0.00 in0.0 mm 0.00 in0.0 mm 0.06 in1.5 mm
06:14 AM 62.2°F16.8°C 61.2°F16.2°C 96% 4.9 mph NW7.9 kmh NW 10.1 mph16.3 kmh 30.06 in1017.9 mb 0.00 in0.0 mm 0.00 in0.0 mm 0.06 in1.5 mm
06:09 AM 62.1°F16.7°C 61.0°F16.1°C 96% 4.9 mph W7.9 kmh W 13.0 mph20.9 kmh 30.06 in1017.9 mb 0.00 in0.0 mm 0.00 in0.0 mm 0.06 in1.5 mm
06:04 AM 62.2°F16.8°C 61.2°F16.2°C 96% 4.9 mph WSW7.9 kmh WSW 8.9 mph14.3 kmh 30.06 in1017.9 mb 0.00 in0.0 mm 0.00 in0.0 mm 0.06 in1.5 mm
05:59 AM 62.2°F16.8°C 61.2°F16.2°C 96% 4.9 mph WNW7.9 kmh WNW 8.9 mph14.3 kmh 30.06 in1017.9 mb 0.00 in0.0 mm 0.00 in0.0 mm 0.06 in1.5 mm
05:54 AM 62.2°F16.8°C 61.2°F16.2°C 96% 4.9 mph WSW7.9 kmh WSW 11.0 mph17.7 kmh 30.06 in1017.9 mb 0.00 in0.0 mm 0.00 in0.0 mm 0.06 in1.5 mm
05:49 AM 62.1°F16.7°C 61.0°F16.1°C 96% 4.9 mph W7.9 kmh W 12.1 mph19.5 kmh 30.06 in1017.9 mb 0.00 in0.0 mm 0.00 in0.0 mm 0.06 in1.5 mm
05:44 AM 62.1°F16.7°C 61.0°F16.1°C 96% 4.9 mph W7.9 kmh W 11.0 mph17.7 kmh 30.06 in1017.9 mb 0.00 in0.0 mm 0.00 in0.0 mm 0.06 in1.5 mm
05:39 AM 62.1°F16.7°C 61.0°F16.1°C 96% 4.9 mph NW7.9 kmh NW 11.0 mph17.7 kmh 30.06 in1017.9 mb 0.01 in0.3 mm 0.00 in0.0 mm 0.06 in1.5 mm
05:34 AM 62.1°F16.7°C 61.0°F16.1°C 96% 4.0 mph WSW6.4 kmh WSW 11.0 mph17.7 kmh 30.06 in1017.9 mb 0.01 in0.3 mm 0.00 in0.0 mm 0.06 in1.5 mm
05:29 AM 62.1°F16.7°C 61.0°F16.1°C 96% 4.9 mph W7.9 kmh W 8.9 mph14.3 kmh 30.05 in1017.6 mb 0.01 in0.3 mm 0.00 in0.0 mm 0.06 in1.5 mm
05:24 AM 61.9°F16.6°C 60.8°F16.0°C 96% 4.9 mph WSW7.9 kmh WSW 8.9 mph14.3 kmh 30.06 in1017.9 mb 0.01 in0.3 mm 0.00 in0.0 mm 0.06 in1.5 mm
05:19 AM 61.9°F16.6°C 60.8°F16.0°C 96% 4.9 mph NW7.9 kmh NW 8.9 mph14.3 kmh 30.05 in1017.6 mb 0.01 in0.3 mm 0.00 in0.0 mm 0.06 in1.5 mm
05:14 AM 61.9°F16.6°C 60.8°F16.0°C 96% 4.0 mph WSW6.4 kmh WSW 8.9 mph14.3 kmh 30.05 in1017.6 mb 0.01 in0.3 mm 0.00 in0.0 mm 0.06 in1.5 mm
05:09 AM 61.9°F16.6°C 60.8°F16.0°C 96% 4.0 mph WNW6.4 kmh WNW 9.0 mph14.5 kmh 30.05 in1017.6 mb 0.01 in0.3 mm 0.00 in0.0 mm 0.06 in1.5 mm
05:04 AM 61.9°F16.6°C 60.8°F16.0°C 96% 4.0 mph WSW6.4 kmh WSW 8.1 mph13.0 kmh 30.05 in1017.6 mb 0.01 in0.3 mm 0.00 in0.0 mm 0.06 in1.5 mm
04:59 AM 61.9°F16.6°C 60.8°F16.0°C 96% 4.0 mph W6.4 kmh W 10.1 mph16.3 kmh 30.05 in1017.6 mb 0.01 in0.3 mm 0.00 in0.0 mm 0.06 in1.5 mm
04:54 AM 61.9°F16.6°C 60.4°F15.8°C 95% 4.0 mph W6.4 kmh W 8.1 mph13.0 kmh 30.05 in1017.6 mb 0.01 in0.3 mm 0.00 in0.0 mm 0.06 in1.5 mm
04:49 AM 61.9°F16.6°C 60.4°F15.8°C 95% 4.0 mph W6.4 kmh W 8.1 mph13.0 kmh 30.05 in1017.6 mb 0.01 in0.3 mm 0.00 in0.0 mm 0.06 in1.5 mm
04:44 AM 61.9°F16.6°C 60.4°F15.8°C 95% 4.0 mph WSW6.4 kmh WSW 6.9 mph11.1 kmh 30.05 in1017.6 mb 0.01 in0.3 mm 0.12 in3.0 mm 0.06 in1.5 mm
04:39 AM 61.9°F16.6°C 60.4°F15.8°C 95% 4.0 mph NW6.4 kmh NW 8.1 mph13.0 kmh 30.05 in1017.6 mb 0.00 in0.0 mm 0.00 in0.0 mm 0.05 in1.3 mm
04:34 AM 61.9°F16.6°C 60.4°F15.8°C 95% 4.0 mph WSW6.4 kmh WSW 8.1 mph13.0 kmh 30.05 in1017.6 mb 0.00 in0.0 mm 0.00 in0.0 mm 0.05 in1.3 mm
04:29 AM 61.9°F16.6°C 60.4°F15.8°C 95% 4.0 mph W6.4 kmh W 8.1 mph13.0 kmh 30.05 in1017.6 mb 0.00 in0.0 mm 0.00 in0.0 mm 0.05 in1.3 mm
04:24 AM 61.9°F16.6°C 60.4°F15.8°C 95% 4.0 mph WSW6.4 kmh WSW 10.1 mph16.3 kmh 30.05 in1017.6 mb 0.00 in0.0 mm 0.00 in0.0 mm 0.05 in1.3 mm
04:19 AM 61.9°F16.6°C 60.4°F15.8°C 95% 4.0 mph WSW6.4 kmh WSW 8.9 mph14.3 kmh 30.05 in1017.6 mb 0.00 in0.0 mm 0.00 in0.0 mm 0.05 in1.3 mm
04:14 AM 62.1°F16.7°C 60.6°F15.9°C 95% 4.0 mph WSW6.4 kmh WSW 8.1 mph13.0 kmh 30.05 in1017.6 mb 0.00 in0.0 mm 0.00 in0.0 mm 0.05 in1.3 mm
04:09 AM 62.1°F16.7°C 60.6°F15.9°C 95% 4.0 mph W6.4 kmh W 8.9 mph14.3 kmh 30.05 in1017.6 mb 0.00 in0.0 mm 0.00 in0.0 mm 0.05 in1.3 mm
04:04 AM 62.1°F16.7°C 60.6°F15.9°C 95% 2.9 mph WSW4.7 kmh WSW 6.9 mph11.1 kmh 30.05 in1017.6 mb 0.00 in0.0 mm 0.00 in0.0 mm 0.05 in1.3 mm
03:59 AM 62.1°F16.7°C 60.6°F15.9°C 95% 2.9 mph W4.7 kmh W 6.0 mph9.7 kmh 30.05 in1017.6 mb 0.01 in0.3 mm 0.00 in0.0 mm 0.05 in1.3 mm
03:54 AM 62.2°F16.8°C 60.8°F16.0°C 95% 2.0 mph WSW3.2 kmh WSW 6.0 mph9.7 kmh 30.04 in1017.3 mb 0.01 in0.3 mm 0.00 in0.0 mm 0.05 in1.3 mm
03:49 AM 62.2°F16.8°C 61.2°F16.2°C 96% 0.9 mph W1.4 kmh W 6.0 mph9.7 kmh 30.05 in1017.6 mb 0.01 in0.3 mm 0.00 in0.0 mm 0.05 in1.3 mm
03:44 AM 62.2°F16.8°C 61.2°F16.2°C 96% 0.9 mph WSW1.4 kmh WSW 2.0 mph3.2 kmh 30.05 in1017.6 mb 0.03 in0.8 mm 0.00 in0.0 mm 0.05 in1.3 mm
03:39 AM 62.2°F16.8°C 60.8°F16.0°C 95% 0.9 mph SSW1.4 kmh SSW 4.0 mph6.4 kmh 30.05 in1017.6 mb 0.04 in1.0 mm 0.00 in0.0 mm 0.05 in1.3 mm
03:34 AM 62.2°F16.8°C 60.8°F16.0°C 95% 0.9 mph SSW1.4 kmh SSW 2.0 mph3.2 kmh 30.05 in1017.6 mb 0.05 in1.3 mm 0.00 in0.0 mm 0.05 in1.3 mm
03:29 AM 62.4°F16.9°C 61.0°F16.1°C 95% 0.9 mph S1.4 kmh S 4.0 mph6.4 kmh 30.05 in1017.6 mb 0.05 in1.3 mm 0.00 in0.0 mm 0.05 in1.3 mm
03:24 AM 62.4°F16.9°C 60.6°F15.9°C 94% 0.9 mph S1.4 kmh S 4.0 mph6.4 kmh 30.05 in1017.6 mb 0.05 in1.3 mm 0.00 in0.0 mm 0.05 in1.3 mm
03:19 AM 62.4°F16.9°C 60.6°F15.9°C 94% Calm Calm 2.0 mph3.2 kmh 30.04 in1017.3 mb 0.05 in1.3 mm 0.00 in0.0 mm 0.05 in1.3 mm
03:14 AM 62.6°F17.0°C 60.8°F16.0°C 94% Calm Calm 2.0 mph3.2 kmh 30.05 in1017.6 mb 0.05 in1.3 mm 0.00 in0.0 mm 0.05 in1.3 mm
03:09 AM 62.8°F17.1°C 61.0°F16.1°C 94% 0.9 mph S1.4 kmh S 2.0 mph3.2 kmh 30.05 in1017.6 mb 0.05 in1.3 mm 0.00 in0.0 mm 0.05 in1.3 mm
03:04 AM 62.8°F17.1°C 61.0°F16.1°C 94% 0.9 mph SW1.4 kmh SW 2.9 mph4.7 kmh 30.05 in1017.6 mb 0.05 in1.3 mm 0.01 in0.3 mm 0.05 in1.3 mm
02:59 AM 63.0°F17.2°C 61.0°F16.1°C 93% 0.9 mph SW1.4 kmh SW 2.9 mph4.7 kmh 30.04 in1017.3 mb 0.04 in1.0 mm 0.06 in1.5 mm 0.04 in1.0 mm
02:49 AM 63.3°F17.4°C 60.6°F15.9°C 91% 2.0 mph WSW3.2 kmh WSW 4.0 mph6.4 kmh 30.04 in1017.3 mb 0.03 in0.8 mm 0.12 in3.0 mm 0.03 in0.8 mm
02:44 AM 63.7°F17.6°C 61.0°F16.1°C 91% 2.9 mph W4.7 kmh W 6.0 mph9.7 kmh 30.04 in1017.3 mb 0.02 in0.5 mm 0.24 in6.1 mm 0.02 in0.5 mm
02:39 AM 63.9°F17.7°C 60.8°F16.0°C 90% 4.0 mph WSW6.4 kmh WSW 6.0 mph9.7 kmh 30.04 in1017.3 mb 0.00 in0.0 mm 0.00 in0.0 mm 0.01 in0.3 mm
02:34 AM 64.2°F17.9°C 60.6°F15.9°C 88% 2.9 mph WSW4.7 kmh WSW 6.0 mph9.7 kmh 30.04 in1017.3 mb 0.00 in0.0 mm 0.00 in0.0 mm 0.00 in0.0 mm
02:29 AM 64.4°F18.0°C 60.4°F15.8°C 87% 2.9 mph W4.7 kmh W 6.9 mph11.1 kmh 30.04 in1017.3 mb 0.00 in0.0 mm 0.00 in0.0 mm 0.00 in0.0 mm
02:24 AM 64.6°F18.1°C 60.3°F15.7°C 86% 2.9 mph WSW4.7 kmh WSW 6.9 mph11.1 kmh 30.04 in1017.3 mb 0.00 in0.0 mm 0.00 in0.0 mm 0.00 in0.0 mm
02:19 AM 64.6°F18.1°C 60.3°F15.7°C 86% 2.9 mph WSW4.7 kmh WSW 8.1 mph13.0 kmh 30.04 in1017.3 mb 0.00 in0.0 mm 0.00 in0.0 mm 0.00 in0.0 mm
02:14 AM 64.6°F18.1°C 59.9°F15.5°C 85% 2.9 mph SSW4.7 kmh SSW 6.9 mph11.1 kmh 30.04 in1017.3 mb 0.00 in0.0 mm 0.00 in0.0 mm 0.00 in0.0 mm
02:09 AM 64.4°F18.0°C 60.1°F15.6°C 86% 2.9 mph SW4.7 kmh SW 8.1 mph13.0 kmh 30.04 in1017.3 mb 0.00 in0.0 mm 0.00 in0.0 mm 0.00 in0.0 mm
02:04 AM 64.2°F17.9°C 59.9°F15.5°C 86% 2.9 mph SW4.7 kmh SW 7.0 mph11.3 kmh 30.04 in1017.3 mb 0.00 in0.0 mm 0.00 in0.0 mm 0.00 in0.0 mm
01:59 AM 64.2°F17.9°C 59.9°F15.5°C 86% 2.9 mph SW4.7 kmh SW 7.0 mph11.3 kmh 30.04 in1017.3 mb 0.00 in0.0 mm 0.00 in0.0 mm 0.00 in0.0 mm
01:54 AM 64.2°F17.9°C 59.9°F15.5°C 86% 2.0 mph SSW3.2 kmh SSW 6.0 mph9.7 kmh 30.04 in1017.3 mb 0.00 in0.0 mm 0.00 in0.0 mm 0.00 in0.0 mm
01:49 AM 64.0°F17.8°C 59.7°F15.4°C 86% 2.0 mph SW3.2 kmh SW 4.9 mph7.9 kmh 30.04 in1017.3 mb 0.00 in0.0 mm 0.00 in0.0 mm 0.00 in0.0 mm
01:44 AM 64.0°F17.8°C 59.7°F15.4°C 86% 0.9 mph SW1.4 kmh SW 4.0 mph6.4 kmh 30.05 in1017.6 mb 0.00 in0.0 mm 0.00 in0.0 mm 0.00 in0.0 mm
01:39 AM 64.0°F17.8°C 59.7°F15.4°C 86% 0.9 mph SW1.4 kmh SW 2.9 mph4.7 kmh 30.05 in1017.6 mb 0.00 in0.0 mm 0.00 in0.0 mm 0.00 in0.0 mm
01:34 AM 64.0°F17.8°C 59.7°F15.4°C 86% 0.9 mph SW1.4 kmh SW 4.0 mph6.4 kmh 30.05 in1017.6 mb 0.00 in0.0 mm 0.00 in0.0 mm 0.00 in0.0 mm
01:29 AM 64.0°F17.8°C 59.7°F15.4°C 86% 2.0 mph WSW3.2 kmh WSW 4.0 mph6.4 kmh 30.05 in1017.6 mb 0.00 in0.0 mm 0.00 in0.0 mm 0.00 in0.0 mm
01:24 AM 64.0°F17.8°C 59.7°F15.4°C 86% 2.0 mph SW3.2 kmh SW 2.9 mph4.7 kmh 30.05 in1017.6 mb 0.00 in0.0 mm 0.00 in0.0 mm 0.00 in0.0 mm
01:19 AM 64.0°F17.8°C 59.4°F15.2°C 85% 2.0 mph WSW3.2 kmh WSW 4.9 mph7.9 kmh 30.05 in1017.6 mb 0.00 in0.0 mm 0.00 in0.0 mm 0.00 in0.0 mm
01:14 AM 64.2°F17.9°C 59.5°F15.3°C 85% 2.0 mph W3.2 kmh W 4.9 mph7.9 kmh 30.05 in1017.6 mb 0.00 in0.0 mm 0.00 in0.0 mm 0.00 in0.0 mm
01:09 AM 64.2°F17.9°C 59.5°F15.3°C 85% 2.9 mph SW4.7 kmh SW 4.9 mph7.9 kmh 30.05 in1017.6 mb 0.00 in0.0 mm 0.00 in0.0 mm 0.00 in0.0 mm
01:04 AM 64.0°F17.8°C 59.4°F15.2°C 85% 2.9 mph WSW4.7 kmh WSW 6.0 mph9.7 kmh 30.05 in1017.6 mb 0.00 in0.0 mm 0.00 in0.0 mm 0.00 in0.0 mm
12:59 AM 64.0°F17.8°C 59.4°F15.2°C 85% 2.9 mph WSW4.7 kmh WSW 6.0 mph9.7 kmh 30.05 in1017.6 mb 0.00 in0.0 mm 0.00 in0.0 mm 0.00 in0.0 mm
12:54 AM 64.2°F17.9°C 59.5°F15.3°C 85% 2.9 mph WSW4.7 kmh WSW 4.9 mph7.9 kmh 30.05 in1017.6 mb 0.00 in0.0 mm 0.00 in0.0 mm 0.00 in0.0 mm
12:49 AM 64.2°F17.9°C 59.5°F15.3°C 85% 2.0 mph WSW3.2 kmh WSW 4.9 mph7.9 kmh 30.05 in1017.6 mb 0.00 in0.0 mm 0.00 in0.0 mm 0.00 in0.0 mm
12:44 AM 64.2°F17.9°C 59.5°F15.3°C 85% 2.9 mph WSW4.7 kmh WSW 6.0 mph9.7 kmh 30.04 in1017.3 mb 0.00 in0.0 mm 0.00 in0.0 mm 0.00 in0.0 mm
12:39 AM 64.2°F17.9°C 59.4°F15.2°C 84% 2.9 mph SW4.7 kmh SW 4.9 mph7.9 kmh 30.04 in1017.3 mb 0.00 in0.0 mm 0.00 in0.0 mm 0.00 in0.0 mm
12:34 AM 64.2°F17.9°C 59.4°F15.2°C 84% 2.9 mph WSW4.7 kmh WSW 6.0 mph9.7 kmh 30.04 in1017.3 mb 0.00 in0.0 mm 0.00 in0.0 mm 0.00 in0.0 mm
12:29 AM 64.4°F18.0°C 59.5°F15.3°C 84% 2.9 mph WSW4.7 kmh WSW 6.0 mph9.7 kmh 30.04 in1017.3 mb 0.00 in0.0 mm 0.00 in0.0 mm 0.00 in0.0 mm
12:24 AM 64.6°F18.1°C 59.7°F15.4°C 84% 2.9 mph WSW4.7 kmh WSW 4.9 mph7.9 kmh 30.04 in1017.3 mb 0.00 in0.0 mm 0.00 in0.0 mm 0.00 in0.0 mm
12:19 AM 64.6°F18.1°C 59.7°F15.4°C 84% 2.0 mph SW3.2 kmh SW 6.0 mph9.7 kmh 30.04 in1017.3 mb 0.00 in0.0 mm 0.00 in0.0 mm 0.00 in0.0 mm
12:14 AM 64.6°F18.1°C 59.7°F15.4°C 84% 2.0 mph SW3.2 kmh SW 4.0 mph6.4 kmh 30.04 in1017.3 mb 0.00 in0.0 mm 0.00 in0.0 mm 0.00 in0.0 mm
12:09 AM 64.8°F18.2°C 59.5°F15.3°C 83% 2.0 mph WSW3.2 kmh WSW 6.0 mph9.7 kmh 30.04 in1017.3 mb 0.00 in0.0 mm 0.00 in0.0 mm 0.00 in0.0 mm
12:04 AM 64.8°F18.2°C 59.5°F15.3°C 83% 2.0 mph SW3.2 kmh SW 6.0 mph9.7 kmh 30.04 in1017.3 mb 0.00 in0.0 mm 0.00 in0.0 mm 0.00 in0.0 mm